Flight Track Log - Related Links

Times and Time Zones

All times are in EDT time to prevent confusion due to time zone crossing. See the UAL582 flight status page for this flight to view local times or setup timezone preferences in your user account.

Time Position Orientation Groundspeed Altitude Reporting Facility
EDT Latitude Longitude Course Direction KTS MPH feet Rate Location/Type
Wed 05:41:31 PM 43.7333 -79.6833 270° West 200 230 4,500  Level Toronto Center
Wed 05:42:00 PM 43.7014 -79.9829 277° West  Level FlightAware Approximate
Wed 05:42:31 PM 43.7500 -79.7667 286° West 250 288 6,900  Level Toronto Center
Wed 05:43:00 PM 43.7117 -80.1060 277° West  Level FlightAware Approximate
Wed 05:43:31 PM 43.7500 -79.8667 270° West 250 288 7,900  Level Toronto Center
Wed 05:44:00 PM 43.7178 -80.2295 277° West  Level FlightAware Approximate
Wed 05:44:31 PM 43.7500 -79.9500 270° West 260 299 11,300  Level Toronto Center
Wed 05:45:00 PM 43.7290 -80.3525 277° West  Level FlightAware Approximate
Wed 05:45:31 PM 43.7500 -80.0667 270° West 260 299 13,400  Level Toronto Center
Wed 05:46:00 PM 43.7334 -80.4929 270° West  Level FlightAware Approximate
Wed 05:46:31 PM 43.7500 -80.1833 270° West 290 334 16,400  Level Toronto Center
Wed 05:47:31 PM 43.7500 -80.3000 270° West 290 334 18,500 2,050 Climbing Toronto Center
Wed 05:48:31 PM 43.7500 -80.4167 270° West 310 357 20,500 1,900 Climbing Toronto Center
Wed 05:49:31 PM 43.7333 -80.5500 260° West 320 368 22,300 1,750 Climbing Toronto Center
Wed 05:50:31 PM 43.7167 -80.6667 259° West 340 391 24,000 1,300 Climbing Toronto Center
Wed 05:51:31 PM 43.6833 -80.7833 248° West 350 403 24,900 1,000 Climbing Toronto Center
Wed 05:52:31 PM 43.6500 -80.9167 251° West 370 426 26,000 1,300 Climbing Toronto Center
Wed 05:53:31 PM 43.6167 -81.0667 253° West 380 437 27,500 1,350 Climbing Toronto Center
Wed 05:54:31 PM 43.5833 -81.2167 253° West 390 449 28,700 1,400 Climbing Toronto Center
Wed 05:55:31 PM 43.5500 -81.3667 253° West 390 449 30,300 1,500 Climbing Toronto Center
Wed 05:56:31 PM 43.5333 -81.5000 260° West 380 437 31,700 1,200 Climbing Toronto Center
Wed 05:57:31 PM 43.5000 -81.6333 251° West 380 437 32,700 1,250 Climbing Toronto Center
Wed 05:58:31 PM 43.4667 -81.7667 251° West 380 437 34,200 1,250 Climbing Toronto Center
Wed 05:59:31 PM 43.4333 -81.9000 251° West 370 426 35,200 900 Climbing Toronto Center
Wed 06:00:31 PM 43.4000 -82.0500 253° West 370 426 36,000 400 Climbing Toronto Center
Wed 06:01:31 PM 43.3667 -82.1833 251° West 360 414 36,000  Level Toronto Center
Wed 06:02:31 PM 43.3333 -82.3167 251° West 370 426 36,000  Level Toronto Center
Wed 06:03:31 PM 43.3167 -82.4333 259° West 370 426 36,000 -100 Level Toronto Center
Wed 06:04:31 PM 43.2833 -82.5667 251° West 370 426 35,800 -1,163 Descending Toronto Center
Wed 06:05:09 PM 43.2711 -82.6503 259° West 366 421 34,100 -2,327 Descending Cleveland Center
Wed 06:06:09 PM 43.2372 -82.7889 251° West 366 421 32,000 -1,050 Descending Cleveland Center
Wed 06:07:09 PM 43.1972 -82.9242 248° West 376 433 32,000  Level Cleveland Center
Wed 06:08:09 PM 43.1608 -83.0622 250° West 387 445 32,000  Level Cleveland Center
Wed 06:09:09 PM 43.1225 -83.1972 249° West 387 445 32,000  Level Cleveland Center
Wed 06:10:09 PM 43.0839 -83.3378 249° West 387 445 32,000  Level Cleveland Center
Wed 06:11:09 PM 43.0431 -83.4722 247° West 387 445 32,000  Level Cleveland Center
Wed 06:12:09 PM 43.0039 -83.6125 249° West 392 451 32,000  Level Cleveland Center
Wed 06:13:09 PM 42.9669 -83.7497 250° West 392 451 32,000  Level Cleveland Center
Wed 06:14:09 PM 42.9503 -83.8936 261° West 387 445 32,000  Level Cleveland Center
Wed 06:15:09 PM 42.9378 -84.0375 263° West 387 445 32,000  Level Cleveland Center
Wed 06:16:09 PM 42.9228 -84.1842 262° West 387 445 32,000  Level Cleveland Center
Wed 06:17:09 PM 42.9081 -84.3281 262° West 387 445 32,000  Level Cleveland Center
Wed 06:18:17 PM 42.8919 -84.5042 263° West 384 442 32,000  Level Chicago Center
Wed 06:19:19 PM 42.8769 -84.6486 262° West 385 443 32,000  Level Chicago Center
Wed 06:20:22 PM 42.8608 -84.7953 262° West 390 449 32,000  Level Chicago Center
Wed 06:21:24 PM 42.8464 -84.9411 262° West 390 449 32,000 -145 Level Chicago Center
Wed 06:22:26 PM 42.8317 -85.0883 262° West 391 450 31,700 -1,210 Descending Chicago Center
Wed 06:23:28 PM 42.8153 -85.2314 261° West 387 445 29,500 -1,790 Descending Chicago Center
Wed 06:24:30 PM 42.7969 -85.3983 262° West 375 432 28,000 -726 Descending Chicago Center
Wed 06:25:32 PM 42.7803 -85.5369 261° West 371 427 28,000 -290 Level Chicago Center
Wed 06:26:34 PM 42.7542 -85.6744 256° West 374 430 27,400 -1,258 Descending Chicago Center
Wed 06:27:36 PM 42.7297 -85.8111 256° West 372 428 25,400 -1,984 Descending Chicago Center
Wed 06:28:38 PM 42.7061 -85.9417 256° West 357 411 23,300 -2,129 Descending Chicago Center
Wed 06:29:40 PM 42.6839 -86.0678 257° West 345 397 21,000 -1,597 Descending Chicago Center
Wed 06:30:42 PM 42.6606 -86.1942 256° West 343 395 20,000 -480 Descending Chicago Center
Wed 06:31:45 PM 42.6347 -86.3225 255° West 350 403 20,000 -192 Level Chicago Center
Wed 06:32:47 PM 42.6069 -86.4753 256° West 347 399 19,600 -1,355 Descending Chicago Center
Wed 06:33:49 PM 42.5831 -86.6006 256° West 344 396 17,200 -1,742 Descending Chicago Center
Wed 06:34:51 PM 42.5606 -86.7228 256° West 337 388 16,000 -726 Descending Chicago Center
Wed 06:35:53 PM 42.5294 -86.8414 250° West 337 388 15,700 -1,210 Descending Chicago Center
Wed 06:36:55 PM 42.4981 -86.9556 250° West 327 376 13,500 -1,935 Descending Chicago Center
Wed 06:37:57 PM 42.4672 -87.0650 249° West 315 362 11,700 -1,597 Descending Chicago Center
Wed 06:38:59 PM 42.4303 -87.1989 250° West 319 367 10,200 -823 Descending Chicago Center
Wed 06:40:01 PM 42.3981 -87.3158 250° West 331 381 10,000 -97 Descending Chicago Center
Wed 06:41:03 PM 42.3664 -87.4328 250° West 321 369 10,000  Level Chicago Center
Wed 06:42:05 PM 42.3328 -87.5444 248° West 321 369 10,000 -194 Level Chicago Center
Wed 06:43:07 PM 42.2678 -87.6078 216° Southwest 287 330 9,600 -968 Descending Chicago Center
Wed 06:44:09 PM 42.2081 -87.6714 218° Southwest 275 316 8,000 -768 Descending Chicago Center
Wed 06:45:12 PM 42.1356 -87.7483 218° Southwest 277 319 8,000 -500 Level Chicago Center
Wed 06:45:57 PM 42.1000 -87.8000 227° Southwest 277 319 7,100 -541 Descending Chicago TRACON
Wed 06:47:03 PM 42.1000 -87.9167 270° West 267 307 7,000 -48 Descending Chicago TRACON
Wed 06:48:03 PM 42.0833 -88.0000 255° West 263 303 7,000 -100 Level Chicago TRACON
Wed 06:49:03 PM 42.0667 -88.0833 255° West 225 259 6,800 -900 Descending Chicago TRACON
Wed 06:50:03 PM 42.0667 -88.1667 270° West 224 258 5,200 -1,519 Descending Chicago TRACON
Wed 06:50:22 PM 42.0539 -88.1978 241° Southwest 225 259 4,800 -741 Descending Chicago Center
Wed 06:51:24 PM 42.0208 -88.2453 227° Southwest 212 244 4,200 -387 Descending Chicago Center
Wed 06:52:26 PM 41.9861 -88.1964 134° Southeast 206 237 4,000 -387 Descending Chicago Center
Wed 06:53:28 PM 41.9669 -88.1278 111° Southeast 200 230 3,400 -581 Descending Chicago Center

Login

Don't have an account? Register now (free) for customized features, flight alerts, and more!